x

Half Moon Bay - 24nm Ssw Of San Francisco, Ca (46012) Wave Buoy

2:50pm - Wed 30th Jul 2014 All times are PDT. -7 hours from GMT.

  • Sig Wave height 5.2ft
  • Swell Direction
  • Peak Period 8s
  • Average Period 7s
  • Wind
    13mph, 16mph gusts
  • Sea Temp 63°f
  • Air Temp 58°f
  • Sea Pressure 1016.1mb
  • Half Moon Bay - 24nm Ssw Of San Francisco, Ca
  • Half Moon Bay - 24nm Ssw Of San Francisco, Ca

More Historic Weather Station data

Upgrade to MSW Pro to gain access to the past 30 days of data for over 8000 Wavebouys and Weather Stations around the globe.

Join Pro

Comparision Forecast

View Surf forecast
   
Wed 07/30 2:50pm 5ft 8s 7s 13 16 mph 1016.1mb 63f 58f
1:50pm 6ft 8s 7s 11 16 mph 1016.6mb 63f 58f
12:50pm 5ft 8s 6s 9 13 mph 1016.8mb 63f 58f
11:50am 6ft 8s 7s 9 11 mph 1016.9mb 63f 57f
10:50am 6ft 8s 7s 9 11 mph 1017.2mb 63f 57f
9:50am 6ft 8s 7s 9 13 mph 1017mb 63f 57f
8:50am 6ft 8s 7s 9 13 mph 1017.1mb 63f 57f
7:50am 6ft 8s 6s 9 11 mph 1016.5mb 63f 57f
6:50am 5.5ft 8s 6s 9 11 mph 1016.2mb 63f 57f
5:50am 5ft 8s 6s 7 9 mph 1016mb 63f 57f
4:50am 5ft 8s 6s 9 11 mph 1015.7mb 63f 57f
3:50am 4.5ft 8s 6s 11 16 mph 1015.4mb 63f 57f
2:50am 5ft 8s 6s 9 13 mph 1015.7mb 63f 57f
1:50am 5ft 8s 6s 11 13 mph 1016mb 63f 57f
12:50am 5ft 8s 6s 13 16 mph 1016mb 63f 57f
Tue 07/29 11:50pm 5ft 8s 6s 13 16 mph 1016.3mb 63f 57f
10:50pm 4.5ft 8s 6s 11 13 mph 1016.8mb 63f 57f
9:50pm 4.5ft 8s 6s 11 16 mph 1016.6mb 63f 57f
8:50pm 4.5ft 8s 6s 11 16 mph 1016.4mb 63f 57f
7:50pm 4.5ft 7s 6s 11 16 mph 1016.4mb 63f 58f
6:50pm 4.5ft 8s 6s 11 16 mph 1016.6mb 63f 58f
5:50pm 4ft 8s 6s 11 16 mph 1016.7mb 63f 58f
4:50pm 5ft 8s 6s 9 13 mph 1017.1mb 63f 59f
3:50pm 4.5ft 8s 6s 9 11 mph 1017.5mb 63f 58f
2:50pm 4.5ft 8s 6s 9 11 mph 1017.9mb 63f 58f
1:50pm 4.5ft 8s 6s 9 11 mph 1018.2mb 63f 58f
12:50pm 4.5ft 8s 6s 9 11 mph 1018.4mb 63f 58f
11:50am 4ft 8s 7s 7 9 mph 1018.5mb 63f 58f
10:50am 3.5ft 8s 6s 7 9 mph 1018.6mb 62f 57f
9:50am 4ft 8s 6s 4 7 mph 1018.6mb 62f 56f
8:50am 4ft 8s 6s 7 9 mph 1018.5mb 62f 56f
7:50am 3.5ft 9s 6s 4 9 mph 1018.3mb 62f 55f
6:50am 4ft 8s 6s 7 9 mph 1017.9mb 62f 56f
5:50am 4.5ft 8s 7s 7 9 mph 1017.5mb 62f 57f
4:50am 4.5ft 8s 7s 4 7 mph 1017.7mb 62f 57f
3:50am 4.5ft 8s 6s 4 7 mph 1017.7mb 62f 57f
2:50am 4.5ft 8s 7s 7
mph
1017.7mb 62f 57f
1:50am 4.5ft 8s 7s 4
mph
1018mb 62f 57f
12:50am 4.5ft 8s 7s 4 7 mph 1017.9mb 62f 58f
Mon 07/28 11:50pm 4ft 8s 7s 7 9 mph 1018mb 62f 58f
10:50pm 4.5ft 9s 7s 2 7 mph 1018mb 62f 58f
9:50pm 4.5ft 8s 7s 2 7 mph 1018.1mb 63f 58f
8:50pm 4.5ft 9s 7s 4 9 mph 1017.6mb 63f 58f
7:50pm 4ft 8s 6s 7 9 mph 1017.6mb 63f 59f
6:50pm 4.5ft 8s 6s 4 9 mph 1017.5mb 62f 59f
5:50pm 4.5ft 8s 7s 4 9 mph 1017.7mb 63f 59f
4:50pm 4.5ft 8s 7s 4 9 mph 1018.1mb 63f 60f
3:50pm 4.5ft 8s 7s 4 7 mph 1018.5mb 63f 59f
2:50pm 4.5ft 8s 7s 7 9 mph 1018.8mb 63f 59f
1:50pm 4.5ft 9s 7s 4 7 mph 1018.8mb 63f 58f
12:50pm 4.5ft 8s 7s 2 4 mph 1018.7mb 62f 58f
11:50am 4.5ft 8s 7s 4
mph
1018.7mb 62f 58f
10:50am 4.5ft 9s 7s 2
mph
1018.4mb 62f 57f
9:50am 4.5ft 8s 7s  -  2 mph 1018.4mb 62f 57f
8:50am 4ft 8s 6s 4
mph
1018.1mb 62f 56f
7:50am 4.5ft 8s 6s 4 7 mph 1017.4mb 62f 56f
6:50am 4.5ft 8s 6s 2 4 mph 1017mb 62f 56f
5:50am 4.5ft 8s 6s  -  4 mph 1016.5mb 62f 56f
4:50am 4ft 8s 6s 4 7 mph 1016.1mb 62f 56f
3:50am 4.5ft 8s 6s 2 4 mph 1015.9mb 62f 57f
2:50am 4ft 8s 6s 4 7 mph 1015.9mb 62f 57f
1:50am 4ft 8s 7s 2 4 mph 1016.3mb 62f 57f
12:50am 4ft 8s 6s 2 4 mph 1016.4mb 62f 58f
Sun 07/27 11:50pm 4ft 8s 7s 2 4 mph 1016.4mb 62f 58f
10:50pm 4ft 8s 7s 2 7 mph 1016.5mb 62f 58f
9:50pm 4.5ft 8s 6s  -  2 mph 1016.2mb 62f 58f
8:50pm 4.5ft 8s 6s 4
mph
1015.7mb 62f 58f
7:50pm 4.5ft 8s 6s 7 11 mph 1015.1mb 62f 58f
6:50pm 4.5ft 8s 6s 7 9 mph 1015.2mb 62f 58f
5:50pm 4.5ft 8s 6s 9 11 mph 1014.9mb 62f 58f
4:50pm 4.5ft 8s 6s 7 9 mph 1015.1mb 63f 59f
3:50pm 5ft 8s 6s 7 9 mph 1015.4mb 63f 59f
2:50pm 4.5ft 8s 6s 7 9 mph 1015.5mb 63f 59f
1:50pm 4.5ft 8s 6s 9 11 mph 1015.6mb 62f 59f
12:50pm 4.5ft 8s 7s 7 9 mph 1016mb 62f 59f
11:50am 4.5ft 8s 7s 2 4 mph 1016.4mb 62f 59f
10:50am 4.5ft 8s 7s  -  2 mph 1016.1mb 62f 58f
9:50am 4.5ft 8s 6s 2 4 mph 1016.1mb 62f 58f
8:50am 5ft 8s 7s 4 7 mph 1015.9mb 62f 58f
7:50am 4.5ft 8s 6s 4 7 mph 1015.9mb 62f 58f
6:50am 4.5ft 8s 6s 4 7 mph 1015.1mb 62f 58f
5:50am 4.5ft 8s 6s 4 9 mph 1015.1mb 62f 59f
4:50am 4.5ft 8s 6s 4 9 mph 1014.5mb 62f 59f
3:50am 5ft 8s 6s 2 4 mph 1015mb 62f 59f
2:50am 4.5ft 8s 6s 4 7 mph 1014.8mb 62f 60f
1:50am 5ft 8s 6s 4 7 mph 1014.6mb 62f 59f
12:50am 5ft 8s 6s 7 9 mph 1014.6mb 62f 59f
Sat 07/26 11:50pm 4.5ft 8s 6s 7 11 mph 1014.7mb 62f 60f
10:50pm 5ft 8s 6s 7 9 mph 1015.1mb 62f 59f